createdAt,value
2019-05-01T00:00:18.375Z,1007.38
2019-05-01T00:01:19.769Z,1007.37
2019-05-01T00:02:21.166Z,1007.34
2019-05-01T00:03:22.573Z,1007.36
2019-05-01T00:04:23.963Z,1007.31
2019-05-01T00:05:25.360Z,1007.34
2019-05-01T00:06:26.770Z,1007.30
2019-05-01T00:07:28.168Z,1007.29
2019-05-01T00:08:29.578Z,1007.29
2019-05-01T00:09:30.972Z,1007.27
2019-05-01T00:10:32.406Z,1007.29
2019-05-01T00:11:33.858Z,1007.24
2019-05-01T00:12:35.300Z,1007.29
2019-05-01T00:13:36.685Z,1007.27
2019-05-01T00:14:38.082Z,1007.23
2019-05-01T00:15:39.525Z,1007.25
2019-05-01T00:16:40.925Z,1007.26
2019-05-01T00:17:42.319Z,1007.28
2019-05-01T00:18:43.723Z,1007.30
2019-05-01T00:19:45.155Z,1007.26
2019-05-01T00:20:46.633Z,1007.23
2019-05-01T00:21:48.031Z,1007.26
2019-05-01T00:22:49.423Z,1007.19
2019-05-01T00:23:50.821Z,1007.16
2019-05-01T00:24:52.337Z,1007.13
2019-05-01T00:25:53.746Z,1007.16
2019-05-01T00:26:55.139Z,1007.14
2019-05-01T00:27:56.531Z,1007.14
2019-05-01T00:28:57.955Z,1007.10
2019-05-01T00:29:59.380Z,1007.09
2019-05-01T00:31:00.765Z,1007.05
2019-05-01T00:32:02.158Z,1007.05
2019-05-01T00:33:03.557Z,1007.02
2019-05-01T00:34:04.954Z,1007.01
2019-05-01T00:35:06.350Z,1007.04
2019-05-01T00:36:07.746Z,1007.01
2019-05-01T00:37:09.141Z,1007.02
2019-05-01T00:38:10.536Z,1007.01
2019-05-01T00:39:11.978Z,1007.03
2019-05-01T00:40:13.362Z,1006.97
2019-05-01T00:41:14.754Z,1007.01
2019-05-01T00:42:16.146Z,1006.97
2019-05-01T00:43:17.531Z,1006.98
2019-05-01T00:44:18.920Z,1006.97
2019-05-01T00:45:20.318Z,1006.96
2019-05-01T00:46:21.700Z,1006.99
2019-05-01T00:47:23.094Z,1006.97
2019-05-01T00:48:24.484Z,1006.90
2019-05-01T00:49:25.870Z,1006.94
2019-05-01T00:50:27.257Z,1006.95
2019-05-01T00:51:28.648Z,1006.92
2019-05-01T00:52:30.043Z,1006.91
2019-05-01T00:53:31.430Z,1006.86
2019-05-01T00:54:32.821Z,1006.87
2019-05-01T00:55:34.215Z,1006.87
2019-05-01T00:56:35.611Z,1006.90
2019-05-01T00:57:37.006Z,1006.88
2019-05-01T00:58:38.395Z,1006.82
2019-05-01T00:59:39.779Z,1006.87
2019-05-01T01:00:43.211Z,1006.86
2019-05-01T01:01:42.518Z,1006.89
2019-05-01T01:02:43.965Z,1006.88
2019-05-01T01:03:45.351Z,1006.85
2019-05-01T01:04:46.753Z,1006.88
2019-05-01T01:05:48.146Z,1006.85
2019-05-01T01:06:49.542Z,1006.85
2019-05-01T01:07:50.933Z,1006.84
2019-05-01T01:08:52.322Z,1006.79
2019-05-01T01:09:53.710Z,1006.83
2019-05-01T01:10:55.094Z,1006.80
2019-05-01T01:11:56.511Z,1006.83
2019-05-01T01:12:57.903Z,1006.81
2019-05-01T01:13:59.286Z,1006.85
2019-05-01T01:15:00.679Z,1006.80
2019-05-01T01:16:02.069Z,1006.77
2019-05-01T01:17:03.464Z,1006.79
2019-05-01T01:18:04.866Z,1006.86
2019-05-01T01:19:06.256Z,1006.83
2019-05-01T01:20:07.632Z,1006.82
2019-05-01T01:21:09.034Z,1006.83
2019-05-01T01:22:10.421Z,1006.85
2019-05-01T01:23:11.819Z,1006.81
2019-05-01T01:24:13.218Z,1006.84
2019-05-01T01:25:14.600Z,1006.85
2019-05-01T01:26:15.985Z,1006.86
2019-05-01T01:27:17.386Z,1006.83
2019-05-01T01:28:18.792Z,1006.83
2019-05-01T01:29:20.217Z,1006.83
2019-05-01T01:30:21.581Z,1006.84
2019-05-01T01:31:22.971Z,1006.81
2019-05-01T01:32:24.357Z,1006.85
2019-05-01T01:33:25.745Z,1006.84
2019-05-01T01:34:27.141Z,1006.83
2019-05-01T01:35:28.530Z,1006.79
2019-05-01T01:36:29.923Z,1006.76
2019-05-01T01:37:31.309Z,1006.76
2019-05-01T01:38:32.706Z,1006.74
2019-05-01T01:39:34.103Z,1006.72
2019-05-01T01:40:35.504Z,1006.79
2019-05-01T01:41:36.900Z,1006.76
2019-05-01T01:42:38.294Z,1006.71
2019-05-01T01:43:39.683Z,1006.70
2019-05-01T01:44:41.092Z,1006.72
2019-05-01T01:45:42.484Z,1006.70
2019-05-01T01:46:43.876Z,1006.68
2019-05-01T01:47:45.268Z,1006.72
2019-05-01T01:48:46.656Z,1006.68
2019-05-01T01:49:48.055Z,1006.69
2019-05-01T01:50:49.448Z,1006.65
2019-05-01T01:51:50.837Z,1006.64
2019-05-01T01:52:52.246Z,1006.64
2019-05-01T01:53:53.672Z,1006.63
2019-05-01T01:54:55.059Z,1006.60
2019-05-01T01:55:56.444Z,1006.63
2019-05-01T01:56:57.846Z,1006.62
2019-05-01T01:57:59.237Z,1006.57
2019-05-01T01:59:00.630Z,1006.56
2019-05-01T02:00:02.027Z,1006.59
2019-05-01T02:01:09.344Z,1006.56
2019-05-01T02:02:04.773Z,1006.53
2019-05-01T02:03:06.155Z,1006.52
2019-05-01T02:04:07.549Z,1006.48
2019-05-01T02:05:08.937Z,1006.49
2019-05-01T02:06:10.333Z,1006.44
2019-05-01T02:07:11.728Z,1006.46
2019-05-01T02:08:13.124Z,1006.44
2019-05-01T02:09:14.520Z,1006.45
2019-05-01T02:10:15.988Z,1006.43
2019-05-01T02:11:17.262Z,1006.42
2019-05-01T02:12:18.658Z,1006.38
2019-05-01T02:13:20.046Z,1006.39
2019-05-01T02:14:21.443Z,1006.41
2019-05-01T02:15:22.838Z,1006.36
2019-05-01T02:16:24.232Z,1006.37
2019-05-01T02:17:25.626Z,1006.35
2019-05-01T02:18:27.045Z,1006.33
2019-05-01T02:19:28.431Z,1006.33
2019-05-01T02:20:29.813Z,1006.35
2019-05-01T02:21:31.197Z,1006.34
2019-05-01T02:22:32.595Z,1006.40
2019-05-01T02:23:33.986Z,1006.29
2019-05-01T02:24:35.378Z,1006.31
2019-05-01T02:25:36.773Z,1006.31
2019-05-01T02:26:38.209Z,1006.25
2019-05-01T02:27:39.607Z,1006.25
2019-05-01T02:28:41.005Z,1006.24
2019-05-01T02:29:42.397Z,1006.26
2019-05-01T02:30:43.786Z,1006.22
2019-05-01T02:31:45.175Z,1006.21
2019-05-01T02:32:46.569Z,1006.22
2019-05-01T02:33:47.961Z,1006.20
2019-05-01T02:34:49.367Z,1006.23
2019-05-01T02:35:50.765Z,1006.23
2019-05-01T02:36:52.162Z,1006.22
2019-05-01T02:37:53.544Z,1006.21
2019-05-01T02:38:54.936Z,1006.25
2019-05-01T02:39:56.321Z,1006.28
2019-05-01T02:40:57.732Z,1006.26
2019-05-01T02:41:59.109Z,1006.27
2019-05-01T02:43:00.503Z,1006.27
2019-05-01T02:44:01.897Z,1006.24
2019-05-01T02:45:03.301Z,1006.25
2019-05-01T02:46:04.687Z,1006.25
2019-05-01T02:47:06.081Z,1006.27
2019-05-01T02:48:07.477Z,1006.21
2019-05-01T02:49:08.863Z,1006.20
2019-05-01T02:50:10.267Z,1006.24
2019-05-01T02:51:11.655Z,1006.20
2019-05-01T02:52:13.050Z,1006.18
2019-05-01T02:53:14.438Z,1006.20
2019-05-01T02:54:15.835Z,1006.22
2019-05-01T02:55:17.216Z,1006.19
2019-05-01T02:56:18.619Z,1006.17
2019-05-01T02:57:20.018Z,1006.12
2019-05-01T02:58:21.407Z,1006.13
2019-05-01T02:59:22.796Z,1006.14
2019-05-01T03:00:24.187Z,1006.13
2019-05-01T03:01:25.573Z,1006.10
2019-05-01T03:02:26.993Z,1006.12
2019-05-01T03:03:28.368Z,1006.12
2019-05-01T03:04:29.754Z,1006.15
2019-05-01T03:05:31.138Z,1006.12
2019-05-01T03:06:32.533Z,1006.09
2019-05-01T03:07:33.932Z,1006.10
2019-05-01T03:08:35.311Z,1006.09
2019-05-01T03:09:36.710Z,1006.11
2019-05-01T03:10:38.104Z,1006.07
2019-05-01T03:11:39.511Z,1006.09
2019-05-01T03:12:40.887Z,1006.09
2019-05-01T03:13:42.272Z,1006.10
2019-05-01T03:14:43.667Z,1006.08
2019-05-01T03:15:45.057Z,1006.12
2019-05-01T03:16:46.450Z,1006.04
2019-05-01T03:17:47.836Z,1006.07
2019-05-01T03:18:49.228Z,1006.04
2019-05-01T03:19:50.607Z,1006.04
2019-05-01T03:20:52.012Z,1006.02
2019-05-01T03:21:53.400Z,1006.07
2019-05-01T03:22:54.789Z,1006.06
2019-05-01T03:23:56.173Z,1006.06
2019-05-01T03:24:57.567Z,1006.06
2019-05-01T03:25:58.950Z,1006.10
2019-05-01T03:27:00.348Z,1006.09
2019-05-01T03:28:01.736Z,1006.08
2019-05-01T03:29:03.128Z,1006.12
2019-05-01T03:30:04.540Z,1006.09
2019-05-01T03:31:05.940Z,1006.12
2019-05-01T03:32:18.033Z,1006.09
2019-05-01T03:33:08.907Z,1006.10
2019-05-01T03:34:10.292Z,1006.08
2019-05-01T03:35:11.681Z,1006.09
2019-05-01T03:36:13.073Z,1006.11
2019-05-01T03:37:14.461Z,1006.12
2019-05-01T03:38:15.855Z,1006.10
2019-05-01T03:39:17.255Z,1006.11
2019-05-01T03:40:18.649Z,1006.10
2019-05-01T03:41:20.041Z,1006.10
2019-05-01T03:42:21.433Z,1006.10
2019-05-01T03:43:22.828Z,1006.08
2019-05-01T03:44:24.221Z,1006.11
2019-05-01T03:45:25.617Z,1006.11
2019-05-01T03:46:26.999Z,1006.10
2019-05-01T03:47:28.391Z,1006.14
2019-05-01T03:48:29.786Z,1006.12
2019-05-01T03:49:31.176Z,1006.14
2019-05-01T03:50:32.568Z,1006.12
2019-05-01T03:51:33.972Z,1006.09
2019-05-01T03:52:35.370Z,1006.13
2019-05-01T03:53:36.769Z,1006.09
2019-05-01T03:54:38.157Z,1006.09
2019-05-01T03:55:39.555Z,1006.07
2019-05-01T03:56:40.938Z,1006.05
2019-05-01T03:57:42.345Z,1006.03
2019-05-01T03:58:43.735Z,1006.06
2019-05-01T03:59:45.122Z,1006.08
2019-05-01T04:00:46.520Z,1006.06
2019-05-01T04:01:47.923Z,1006.03
2019-05-01T04:02:49.310Z,1006.05
2019-05-01T04:03:50.725Z,1006.06
2019-05-01T04:04:52.115Z,1006.05
2019-05-01T04:05:53.563Z,1006.02
2019-05-01T04:06:54.891Z,1006.05
2019-05-01T04:07:56.287Z,1006.07
2019-05-01T04:08:57.676Z,1006.04
2019-05-01T04:09:59.083Z,1006.02
2019-05-01T04:11:00.477Z,1005.99
2019-05-01T04:12:01.870Z,1006.00
2019-05-01T04:13:03.267Z,1006.03
2019-05-01T04:14:04.670Z,1006.02
2019-05-01T04:15:06.055Z,1006.03
2019-05-01T04:16:07.452Z,1006.03
2019-05-01T04:17:08.851Z,1006.01
2019-05-01T04:18:10.237Z,1005.98
2019-05-01T04:19:11.633Z,1006.03
2019-05-01T04:20:13.024Z,1006.05
2019-05-01T04:21:14.426Z,1006.05
2019-05-01T04:22:15.798Z,1006.00
2019-05-01T04:23:17.191Z,1006.01
2019-05-01T04:24:18.586Z,1006.03
2019-05-01T04:25:19.978Z,1006.06
2019-05-01T04:26:21.369Z,1006.05
2019-05-01T04:27:22.759Z,1006.10
2019-05-01T04:28:24.157Z,1006.10
2019-05-01T04:29:25.542Z,1006.10
2019-05-01T04:30:26.941Z,1006.10
2019-05-01T04:31:28.329Z,1006.10
2019-05-01T04:32:29.716Z,1006.10
2019-05-01T04:33:31.113Z,1006.09
2019-05-01T04:34:32.507Z,1006.11
2019-05-01T04:35:33.911Z,1006.13
2019-05-01T04:36:35.313Z,1006.13
2019-05-01T04:37:36.715Z,1006.14
2019-05-01T04:38:38.115Z,1006.16
2019-05-01T04:39:39.496Z,1006.19
2019-05-01T04:40:40.893Z,1006.14
2019-05-01T04:41:42.296Z,1006.13
2019-05-01T04:42:43.685Z,1006.18
2019-05-01T04:43:45.084Z,1006.15
2019-05-01T04:44:46.481Z,1006.14
2019-05-01T04:45:47.869Z,1006.10
2019-05-01T04:46:49.272Z,1006.08
2019-05-01T04:47:50.658Z,1006.08
2019-05-01T04:48:52.054Z,1006.09
2019-05-01T04:49:53.442Z,1006.10
2019-05-01T04:50:54.829Z,1006.10
2019-05-01T04:51:56.226Z,1006.10
2019-05-01T04:52:57.615Z,1006.09
2019-05-01T04:53:59.007Z,1006.12
2019-05-01T04:55:00.403Z,1006.07
2019-05-01T04:56:01.797Z,1006.09
2019-05-01T04:57:03.200Z,1006.07
2019-05-01T04:58:04.599Z,1006.10
2019-05-01T04:59:05.996Z,1006.07
2019-05-01T05:00:07.392Z,1006.14
2019-05-01T05:01:08.787Z,1006.17
2019-05-01T05:02:10.187Z,1006.18
2019-05-01T05:03:11.588Z,1006.16
2019-05-01T05:04:12.980Z,1006.15
2019-05-01T05:05:14.391Z,1006.15
2019-05-01T05:06:15.788Z,1006.21
2019-05-01T05:07:17.174Z,1006.17
2019-05-01T05:08:18.572Z,1006.13
2019-05-01T05:09:19.967Z,1006.20
2019-05-01T05:10:21.365Z,1006.18
2019-05-01T05:11:22.755Z,1006.22
2019-05-01T05:12:24.145Z,1006.21
2019-05-01T05:13:25.541Z,1006.22
2019-05-01T05:14:26.938Z,1006.23
2019-05-01T05:15:28.334Z,1006.21
2019-05-01T05:16:29.733Z,1006.22
2019-05-01T05:17:31.121Z,1006.25
2019-05-01T05:18:32.515Z,1006.26
2019-05-01T05:19:34.045Z,1006.24
2019-05-01T05:20:35.441Z,1006.27
2019-05-01T05:21:36.850Z,1006.23
2019-05-01T05:22:38.240Z,1006.27
2019-05-01T05:23:39.638Z,1006.34
2019-05-01T05:24:41.031Z,1006.35
2019-05-01T05:25:42.433Z,1006.32
2019-05-01T05:26:43.828Z,1006.35
2019-05-01T05:27:45.232Z,1006.36
2019-05-01T05:28:46.619Z,1006.37
2019-05-01T05:29:48.016Z,1006.36
2019-05-01T05:30:49.410Z,1006.40
2019-05-01T05:31:50.804Z,1006.39
2019-05-01T05:32:52.198Z,1006.40
2019-05-01T05:33:53.603Z,1006.42
2019-05-01T05:34:54.986Z,1006.41
2019-05-01T05:35:56.368Z,1006.44
2019-05-01T05:36:57.822Z,1006.44
2019-05-01T05:37:59.155Z,1006.43
2019-05-01T05:39:00.551Z,1006.41
2019-05-01T05:40:01.994Z,1006.38
2019-05-01T05:41:03.339Z,1006.37
2019-05-01T05:42:04.731Z,1006.37
2019-05-01T05:43:06.712Z,1006.35
2019-05-01T05:44:08.098Z,1006.32
2019-05-01T05:45:09.487Z,1006.38
2019-05-01T05:46:10.882Z,1006.32
2019-05-01T05:47:12.271Z,1006.34
2019-05-01T05:48:13.665Z,1006.34
2019-05-01T05:49:15.053Z,1006.36
2019-05-01T05:50:16.452Z,1006.32
2019-05-01T05:51:17.850Z,1006.34
2019-05-01T05:52:19.242Z,1006.33
2019-05-01T05:53:20.636Z,1006.34
2019-05-01T05:54:22.032Z,1006.31
2019-05-01T05:55:23.429Z,1006.33
2019-05-01T05:56:24.821Z,1006.35
2019-05-01T05:57:26.220Z,1006.33
2019-05-01T05:58:27.615Z,1006.31
2019-05-01T05:59:29.016Z,1006.32
2019-05-01T06:00:30.409Z,1006.25
2019-05-01T06:01:31.804Z,1006.32
2019-05-01T06:02:33.202Z,1006.27
2019-05-01T06:03:35.181Z,1006.30
2019-05-01T06:04:35.959Z,1006.33
2019-05-01T06:05:37.345Z,1006.35
2019-05-01T06:06:38.740Z,1006.35
2019-05-01T06:07:40.137Z,1006.35
2019-05-01T06:08:41.616Z,1006.39
2019-05-01T06:09:44.762Z,1006.36
2019-05-01T06:10:44.250Z,1006.31
2019-05-01T06:11:45.667Z,1006.32
2019-05-01T06:12:48.560Z,1006.34
2019-05-01T06:13:48.439Z,1006.32
2019-05-01T06:14:49.833Z,1006.33
2019-05-01T06:15:51.223Z,1006.34
2019-05-01T06:16:53.996Z,1006.34
2019-05-01T06:17:53.978Z,1006.32
2019-05-01T06:18:55.375Z,1006.33
2019-05-01T06:19:56.782Z,1006.38
2019-05-01T06:21:02.217Z,1006.38
2019-05-01T06:21:59.528Z,1006.39
2019-05-01T06:23:00.927Z,1006.37
2019-05-01T06:24:06.551Z,1006.37
2019-05-01T06:25:03.678Z,1006.40
2019-05-01T06:26:05.088Z,1006.45
2019-05-01T06:27:08.878Z,1006.38
2019-05-01T06:28:07.826Z,1006.34
2019-05-01T06:29:09.217Z,1006.32
2019-05-01T06:30:10.979Z,1006.31
2019-05-01T06:31:11.978Z,1006.35
2019-05-01T06:32:13.374Z,1006.26
2019-05-01T06:33:14.767Z,1006.27
2019-05-01T06:34:16.154Z,1006.24
2019-05-01T06:35:17.555Z,1006.28
2019-05-01T06:36:18.940Z,1006.31
2019-05-01T06:37:20.837Z,1006.32
2019-05-01T06:38:21.694Z,1006.35
2019-05-01T06:39:23.094Z,1006.35
2019-05-01T06:40:24.483Z,1006.34
2019-05-01T06:41:28.614Z,1006.37
2019-05-01T06:42:27.239Z,1006.41
2019-05-01T06:43:28.639Z,1006.39
2019-05-01T06:44:33.557Z,1006.38
2019-05-01T06:45:31.389Z,1006.38
2019-05-01T06:46:35.263Z,1006.36
2019-05-01T06:47:38.041Z,1006.33
2019-05-01T06:48:35.498Z,1006.31
2019-05-01T06:49:36.898Z,1006.32
2019-05-01T06:50:41.555Z,1006.34
2019-05-01T06:51:39.656Z,1006.30
2019-05-01T06:52:41.060Z,1006.33
2019-05-01T06:53:42.462Z,1006.37
2019-05-01T06:54:47.663Z,1006.33
2019-05-01T06:55:45.211Z,1006.34
2019-05-01T06:56:47.605Z,1006.32
2019-05-01T06:57:49.008Z,1006.37
2019-05-01T06:58:51.086Z,1006.38
2019-05-01T06:59:51.778Z,1006.37
2019-05-01T07:00:53.172Z,1006.39
2019-05-01T07:01:58.480Z,1006.41
2019-05-01T07:02:55.929Z,1006.40
2019-05-01T07:04:03.366Z,1006.42
2019-05-01T07:04:58.692Z,1006.43
2019-05-01T07:06:00.095Z,1006.54
2019-05-01T07:07:01.931Z,1006.48
2019-05-01T07:08:02.848Z,1006.57
2019-05-01T07:09:07.002Z,1006.50
2019-05-01T07:10:05.610Z,1006.49
2019-05-01T07:11:10.933Z,1006.45
2019-05-01T07:12:08.361Z,1006.46
2019-05-01T07:13:09.766Z,1006.47
2019-05-01T07:14:15.773Z,1006.46
2019-05-01T07:15:12.546Z,1006.43
2019-05-01T07:16:13.962Z,1006.44
2019-05-01T07:17:15.366Z,1006.52
2019-05-01T07:18:18.838Z,1006.46
2019-05-01T07:19:18.124Z,1006.46
2019-05-01T07:20:19.523Z,1006.39
2019-05-01T07:21:22.763Z,1006.43
2019-05-01T07:22:22.316Z,1006.45
2019-05-01T07:23:23.694Z,1006.44
2019-05-01T07:24:27.954Z,1006.42
2019-05-01T07:25:26.452Z,1006.52
2019-05-01T07:26:27.854Z,1006.42
2019-05-01T07:27:29.264Z,1006.51
2019-05-01T07:28:34.195Z,1006.47
2019-05-01T07:29:32.963Z,1006.45
2019-05-01T07:30:33.388Z,1006.46
2019-05-01T07:31:34.793Z,1006.49
2019-05-01T07:32:36.418Z,1006.53
2019-05-01T07:33:37.571Z,1006.48
2019-05-01T07:34:38.972Z,1006.46
2019-05-01T07:35:40.378Z,1006.47
2019-05-01T07:36:45.524Z,1006.44
2019-05-01T07:37:43.137Z,1006.47
2019-05-01T07:38:44.545Z,1006.51
2019-05-01T07:39:49.953Z,1006.46
2019-05-01T07:40:47.336Z,1006.42
2019-05-01T07:41:48.733Z,1006.48
2019-05-01T07:42:50.139Z,1006.47
2019-05-01T07:43:54.974Z,1006.45
2019-05-01T07:44:52.900Z,1006.45
2019-05-01T07:45:54.297Z,1006.46
2019-05-01T07:46:56.256Z,1006.48
2019-05-01T07:48:00.983Z,1006.52
2019-05-01T07:48:58.418Z,1006.51
2019-05-01T07:49:59.820Z,1006.48
2019-05-01T07:51:01.955Z,1006.51
2019-05-01T07:52:02.582Z,1006.52
2019-05-01T07:53:03.975Z,1006.51
2019-05-01T07:54:08.753Z,1006.49
2019-05-01T07:55:06.771Z,1006.53
2019-05-01T07:56:08.160Z,1006.46
2019-05-01T07:57:09.568Z,1006.49
2019-05-01T07:58:16.029Z,1006.51
2019-05-01T07:59:12.340Z,1006.51
2019-05-01T08:00:13.737Z,1006.49
2019-05-01T08:01:18.320Z,1006.54
2019-05-01T08:02:16.504Z,1006.58
2019-05-01T08:03:17.911Z,1006.45
2019-05-01T08:04:35.297Z,1006.52
2019-05-01T08:05:20.677Z,1006.53
2019-05-01T08:06:22.922Z,1006.52
2019-05-01T08:07:23.439Z,1006.49
2019-05-01T08:08:24.847Z,1006.49
2019-05-01T08:09:26.247Z,1006.51
2019-05-01T08:10:30.828Z,1006.51
2019-05-01T08:11:29.014Z,1006.52
2019-05-01T08:12:30.429Z,1006.54
2019-05-01T08:13:34.965Z,1006.48
2019-05-01T08:14:33.205Z,1006.50
2019-05-01T08:15:34.603Z,1006.51
2019-05-01T08:16:37.855Z,1006.48
2019-05-01T08:17:37.405Z,1006.64
2019-05-01T08:18:38.821Z,1006.55
2019-05-01T08:19:40.714Z,1006.73
2019-05-01T08:20:41.554Z,1006.49
2019-05-01T08:21:42.962Z,1006.52
2019-05-01T08:22:44.357Z,1006.54
2019-05-01T08:23:47.228Z,1006.46
2019-05-01T08:24:47.160Z,1006.42
2019-05-01T08:25:48.579Z,1006.40
2019-05-01T08:26:49.967Z,1006.42
2019-05-01T08:27:55.836Z,1006.53
2019-05-01T08:28:52.787Z,1006.60
2019-05-01T08:29:54.191Z,1006.61
2019-05-01T08:30:55.605Z,1006.50
2019-05-01T08:31:58.735Z,1006.51
2019-05-01T08:32:58.409Z,1006.50
2019-05-01T08:33:59.819Z,1006.51
2019-05-01T08:35:02.419Z,1006.62
2019-05-01T08:36:06.678Z,1006.73
2019-05-01T08:37:06.480Z,1006.49
2019-05-01T08:38:05.935Z,1006.56
2019-05-01T08:39:09.228Z,1006.52
2019-05-01T08:40:08.705Z,1006.47
2019-05-01T08:41:10.114Z,1006.51
2019-05-01T08:42:11.512Z,1006.45
2019-05-01T08:43:13.687Z,1006.52
2019-05-01T08:44:14.306Z,1006.47
2019-05-01T08:45:15.718Z,1006.41
2019-05-01T08:46:17.776Z,1006.47
2019-05-01T08:47:20.786Z,1006.43
2019-05-01T08:48:19.854Z,1006.46
2019-05-01T08:49:21.266Z,1006.75
2019-05-01T08:50:24.817Z,1006.50
2019-05-01T08:51:24.057Z,1006.41
2019-05-01T08:52:25.457Z,1006.37
2019-05-01T08:53:26.900Z,1006.41
2019-05-01T08:54:29.043Z,1006.46
2019-05-01T08:55:29.856Z,1006.55
2019-05-01T08:56:31.271Z,1006.78
2019-05-01T08:57:34.553Z,1006.75
2019-05-01T08:58:34.077Z,1006.70
2019-05-01T08:59:35.612Z,1006.44
2019-05-01T09:00:40.956Z,1006.41
2019-05-01T09:01:38.380Z,1006.48
2019-05-01T09:02:41.638Z,1006.61
2019-05-01T09:03:41.155Z,1006.54
2019-05-01T09:04:42.557Z,1006.40
2019-05-01T09:05:44.014Z,1006.49
2019-05-01T09:06:45.458Z,1006.42
2019-05-01T09:07:46.870Z,1006.50
2019-05-01T09:08:48.213Z,1006.48
2019-05-01T09:09:49.623Z,1006.70
2019-05-01T09:10:54.815Z,1006.49
2019-05-01T09:11:54.551Z,1006.53
2019-05-01T09:12:53.764Z,1006.49
2019-05-01T09:13:58.787Z,1006.57
2019-05-01T09:14:56.543Z,1006.65
2019-05-01T09:15:57.983Z,1006.62
2019-05-01T09:16:59.398Z,1006.41
2019-05-01T09:18:00.802Z,1006.65
2019-05-01T09:19:02.212Z,1006.61
2019-05-01T09:20:03.624Z,1006.65
2019-05-01T09:21:05.041Z,1006.27
2019-05-01T09:22:06.468Z,1006.42
2019-05-01T09:23:09.576Z,1006.43
2019-05-01T09:24:09.246Z,1006.34
2019-05-01T09:25:10.666Z,1006.59
2019-05-01T09:26:15.931Z,1006.53
2019-05-01T09:27:13.450Z,1006.37
2019-05-01T09:28:14.857Z,1006.54
2019-05-01T09:29:17.828Z,1006.42
2019-05-01T09:30:21.685Z,1006.48
2019-05-01T09:31:19.041Z,1006.60
2019-05-01T09:32:20.439Z,1006.47
2019-05-01T09:33:21.851Z,1006.51
2019-05-01T09:34:23.281Z,1006.55
2019-05-01T09:35:24.697Z,1006.63
2019-05-01T09:36:26.111Z,1006.36
2019-05-01T09:37:27.520Z,1006.28
2019-05-01T09:38:28.953Z,1006.55
2019-05-01T09:39:30.354Z,1006.48
2019-05-01T09:40:31.775Z,1006.54
2019-05-01T09:41:38.333Z,1006.33
2019-05-01T09:42:34.570Z,1006.26
2019-05-01T09:43:36.943Z,1006.31
2019-05-01T09:44:37.385Z,1006.35
2019-05-01T09:45:38.800Z,1006.43
2019-05-01T09:46:40.212Z,1006.22
2019-05-01T09:47:41.627Z,1006.29
2019-05-01T09:48:43.051Z,1006.44
2019-05-01T09:49:44.483Z,1006.31
2019-05-01T09:50:45.900Z,1006.33
2019-05-01T09:51:47.607Z,1006.26
2019-05-01T09:52:48.690Z,1006.34
2019-05-01T09:53:50.102Z,1006.24
2019-05-01T09:54:51.514Z,1006.27
2019-05-01T09:55:52.927Z,1006.27
2019-05-01T09:56:54.349Z,1006.24
2019-05-01T09:57:55.766Z,1006.41
2019-05-01T09:58:57.198Z,1006.19
2019-05-01T09:59:58.610Z,1006.34
2019-05-01T10:01:00.006Z,1006.20
2019-05-01T10:02:02.955Z,1006.22
2019-05-01T10:03:02.776Z,1006.27
2019-05-01T10:04:05.580Z,1006.38
2019-05-01T10:05:06.638Z,1006.37
2019-05-01T10:06:07.005Z,1006.40
2019-05-01T10:07:08.466Z,1006.40
2019-05-01T10:08:09.898Z,1006.31
2019-05-01T10:09:12.010Z,1006.33
2019-05-01T10:10:12.805Z,1006.28
2019-05-01T10:11:14.211Z,1006.09
2019-05-01T10:12:15.645Z,1006.17
2019-05-01T10:13:17.767Z,1006.15
2019-05-01T10:14:18.479Z,1006.10
2019-05-01T10:15:19.890Z,1006.10
2019-05-01T10:16:21.307Z,1006.12
2019-05-01T10:17:22.716Z,1006.20
2019-05-01T10:18:24.151Z,1006.30
2019-05-01T10:19:25.562Z,1006.27
2019-05-01T10:20:26.968Z,1006.24
2019-05-01T10:21:28.969Z,1006.17
2019-05-01T10:22:32.933Z,1006.16
2019-05-01T10:23:31.108Z,1006.16
2019-05-01T10:24:37.291Z,1006.01
2019-05-01T10:25:33.893Z,1005.97
2019-05-01T10:26:35.301Z,1006.00
2019-05-01T10:27:37.466Z,1005.92
2019-05-01T10:28:38.081Z,1005.95
2019-05-01T10:29:39.500Z,1005.90
2019-05-01T10:30:40.909Z,1005.84
2019-05-01T10:31:42.904Z,1005.87
2019-05-01T10:32:43.679Z,1005.82
2019-05-01T10:33:45.095Z,1005.83
2019-05-01T10:34:46.497Z,1005.84
2019-05-01T10:35:47.906Z,1005.85
2019-05-01T10:36:49.903Z,1005.85
2019-05-01T10:37:50.693Z,1005.84
2019-05-01T10:38:52.105Z,1005.88
2019-05-01T10:39:54.174Z,1005.82
2019-05-01T10:40:54.872Z,1005.81
2019-05-01T10:41:56.286Z,1005.88
2019-05-01T10:42:57.704Z,1005.82
2019-05-01T10:43:59.100Z,1005.73
2019-05-01T10:45:00.526Z,1005.78
2019-05-01T10:46:01.963Z,1005.71
2019-05-01T10:47:03.361Z,1005.83
2019-05-01T10:48:04.770Z,1005.78
2019-05-01T10:49:06.222Z,1005.80
2019-05-01T10:50:07.586Z,1005.70
2019-05-01T10:51:08.988Z,1005.74
2019-05-01T10:52:14.398Z,1005.79
2019-05-01T10:53:11.772Z,1005.75
2019-05-01T10:54:13.180Z,1005.75
2019-05-01T10:55:14.592Z,1005.75
2019-05-01T10:56:16.002Z,1005.73
2019-05-01T10:57:17.405Z,1005.79
2019-05-01T10:58:20.229Z,1005.75
2019-05-01T10:59:20.202Z,1005.77
2019-05-01T11:00:21.620Z,1005.87
2019-05-01T11:01:23.031Z,1005.78
2019-05-01T11:02:24.442Z,1005.68
2019-05-01T11:03:25.846Z,1005.72
2019-05-01T11:04:27.266Z,1005.68
2019-05-01T11:05:28.661Z,1005.73
2019-05-01T11:06:30.081Z,1005.60
2019-05-01T11:07:31.480Z,1005.55
2019-05-01T11:08:32.896Z,1005.65
2019-05-01T11:09:34.303Z,1005.50
2019-05-01T11:10:35.712Z,1005.59
2019-05-01T11:11:37.114Z,1005.59
2019-05-01T11:12:38.526Z,1005.63
2019-05-01T11:13:39.935Z,1005.53
2019-05-01T11:14:41.334Z,1005.62
2019-05-01T11:15:42.756Z,1005.74
2019-05-01T11:16:44.160Z,1005.69
2019-05-01T11:17:45.589Z,1005.85
2019-05-01T11:18:46.995Z,1005.80
2019-05-01T11:19:48.411Z,1005.74
2019-05-01T11:20:49.813Z,1005.81
2019-05-01T11:21:51.219Z,1005.68
2019-05-01T11:22:52.644Z,1005.60
2019-05-01T11:23:54.041Z,1005.65
2019-05-01T11:24:55.459Z,1005.66
2019-05-01T11:25:56.860Z,1005.69
2019-05-01T11:26:58.263Z,1005.65
2019-05-01T11:27:59.675Z,1005.68
2019-05-01T11:29:01.100Z,1005.69
2019-05-01T11:30:02.519Z,1005.67
2019-05-01T11:31:03.919Z,1005.62
2019-05-01T11:32:05.324Z,1005.68
2019-05-01T11:33:06.727Z,1005.64
2019-05-01T11:34:08.146Z,1005.62
2019-05-01T11:35:09.562Z,1005.64
2019-05-01T11:36:10.972Z,1005.61
2019-05-01T11:37:12.392Z,1005.60
2019-05-01T11:38:13.800Z,1005.67
2019-05-01T11:39:15.203Z,1005.63
2019-05-01T11:40:16.610Z,1005.65
2019-05-01T11:41:18.016Z,1005.66
2019-05-01T11:42:19.425Z,1005.66
2019-05-01T11:43:20.858Z,1005.69
2019-05-01T11:44:22.319Z,1005.65
2019-05-01T11:45:23.725Z,1005.69
2019-05-01T11:46:25.128Z,1005.64
2019-05-01T11:47:26.535Z,1005.64
2019-05-01T11:48:30.079Z,1005.63
2019-05-01T11:49:29.321Z,1005.64
2019-05-01T11:50:30.743Z,1005.60
2019-05-01T11:51:32.169Z,1005.67
2019-05-01T11:52:33.597Z,1005.66
2019-05-01T11:53:35.016Z,1005.52
2019-05-01T11:54:36.419Z,1005.53
2019-05-01T11:55:37.815Z,1005.64
2019-05-01T11:56:39.225Z,1005.43
2019-05-01T11:57:40.636Z,1005.58
2019-05-01T11:58:42.040Z,1005.52
2019-05-01T11:59:43.450Z,1005.41
2019-05-01T12:00:44.796Z,1005.35
2019-05-01T12:01:46.213Z,1005.40
2019-05-01T12:02:47.628Z,1005.31
2019-05-01T12:03:49.075Z,1005.35
2019-05-01T12:04:50.436Z,1005.34
2019-05-01T12:05:51.836Z,1005.29
2019-05-01T12:06:53.234Z,1005.26
2019-05-01T12:07:54.647Z,1005.32
2019-05-01T12:08:56.058Z,1005.31
2019-05-01T12:09:57.471Z,1005.28
2019-05-01T12:10:58.888Z,1005.28
2019-05-01T12:12:00.330Z,1005.26
2019-05-01T12:13:01.739Z,1005.28
2019-05-01T12:14:03.142Z,1005.28
2019-05-01T12:15:04.552Z,1005.32
2019-05-01T12:16:05.957Z,1005.24
2019-05-01T12:17:07.361Z,1005.23
2019-05-01T12:18:08.763Z,1005.23
2019-05-01T12:19:10.169Z,1005.18
2019-05-01T12:20:11.577Z,1005.23
2019-05-01T12:21:12.995Z,1005.27
2019-05-01T12:22:14.397Z,1005.25